sensor_id;sensor_type;location;lat;lon;timestamp;temperature;humidity
67777;DHT22;54576;52.020;5.536;2023-07-31T00:00:26;16.10;99.90
67777;DHT22;54576;52.020;5.536;2023-07-31T00:02:52;16.20;99.90
67777;DHT22;54576;52.020;5.536;2023-07-31T00:05:18;16.20;99.90
67777;DHT22;54576;52.020;5.536;2023-07-31T00:07:44;16.20;99.90
67777;DHT22;54576;52.020;5.536;2023-07-31T00:10:10;16.20;99.90
67777;DHT22;54576;52.020;5.536;2023-07-31T00:12:36;16.20;99.90
67777;DHT22;54576;52.020;5.536;2023-07-31T00:15:02;16.20;99.90
67777;DHT22;54576;52.020;5.536;2023-07-31T00:17:28;16.30;99.90
67777;DHT22;54576;52.020;5.536;2023-07-31T00:19:53;16.30;99.90
67777;DHT22;54576;52.020;5.536;2023-07-31T00:22:19;16.30;99.90
67777;DHT22;54576;52.020;5.536;2023-07-31T00:24:44;16.30;99.90
67777;DHT22;54576;52.020;5.536;2023-07-31T00:27:10;16.30;99.90
67777;DHT22;54576;52.020;5.536;2023-07-31T00:29:42;16.30;99.90
67777;DHT22;54576;52.020;5.536;2023-07-31T00:32:07;16.40;99.90
67777;DHT22;54576;52.020;5.536;2023-07-31T00:34:33;16.40;99.90
67777;DHT22;54576;52.020;5.536;2023-07-31T00:36:59;16.40;99.90
67777;DHT22;54576;52.020;5.536;2023-07-31T00:39:24;16.50;99.90
67777;DHT22;54576;52.020;5.536;2023-07-31T00:41:50;16.60;99.90
67777;DHT22;54576;52.020;5.536;2023-07-31T00:44:15;16.70;99.90
67777;DHT22;54576;52.020;5.536;2023-07-31T00:46:41;16.70;99.90
67777;DHT22;54576;52.020;5.536;2023-07-31T00:49:07;16.70;99.90
67777;DHT22;54576;52.020;5.536;2023-07-31T00:51:33;16.80;99.90
67777;DHT22;54576;52.020;5.536;2023-07-31T00:54:03;16.80;99.90
67777;DHT22;54576;52.020;5.536;2023-07-31T00:56:29;16.90;99.90
67777;DHT22;54576;52.020;5.536;2023-07-31T00:58:55;16.90;99.90
67777;DHT22;54576;52.020;5.536;2023-07-31T01:01:21;16.90;99.90
67777;DHT22;54576;52.020;5.536;2023-07-31T01:03:48;17.00;99.90
67777;DHT22;54576;52.020;5.536;2023-07-31T01:09:08;17.00;99.90
67777;DHT22;54576;52.020;5.536;2023-07-31T01:11:38;17.00;99.90
67777;DHT22;54576;52.020;5.536;2023-07-31T01:14:08;17.00;99.90
67777;DHT22;54576;52.020;5.536;2023-07-31T01:16:33;17.10;99.90
67777;DHT22;54576;52.020;5.536;2023-07-31T01:18:59;17.00;99.90
67777;DHT22;54576;52.020;5.536;2023-07-31T01:24:41;17.00;99.90
67777;DHT22;54576;52.020;5.536;2023-07-31T01:27:16;17.00;99.90
67777;DHT22;54576;52.020;5.536;2023-07-31T01:29:49;17.00;99.90
67777;DHT22;54576;52.020;5.536;2023-07-31T01:32:22;17.00;99.90
67777;DHT22;54576;52.020;5.536;2023-07-31T01:34:48;17.00;99.90
67777;DHT22;54576;52.020;5.536;2023-07-31T01:37:14;17.00;99.90
67777;DHT22;54576;52.020;5.536;2023-07-31T01:39:40;17.00;99.90
67777;DHT22;54576;52.020;5.536;2023-07-31T01:42:05;17.00;99.90
67777;DHT22;54576;52.020;5.536;2023-07-31T01:44:31;17.00;99.90
67777;DHT22;54576;52.020;5.536;2023-07-31T01:46:58;17.00;99.90
67777;DHT22;54576;52.020;5.536;2023-07-31T01:49:25;17.00;99.90
67777;DHT22;54576;52.020;5.536;2023-07-31T01:51:51;17.00;99.90
67777;DHT22;54576;52.020;5.536;2023-07-31T01:54:16;16.90;99.90
67777;DHT22;54576;52.020;5.536;2023-07-31T01:56:42;17.00;99.90
67777;DHT22;54576;52.020;5.536;2023-07-31T01:59:08;16.90;99.90
67777;DHT22;54576;52.020;5.536;2023-07-31T02:01:34;16.90;99.90
67777;DHT22;54576;52.020;5.536;2023-07-31T02:03:59;16.90;99.90
67777;DHT22;54576;52.020;5.536;2023-07-31T02:06:25;16.90;99.90
67777;DHT22;54576;52.020;5.536;2023-07-31T02:08:50;16.90;99.90
67777;DHT22;54576;52.020;5.536;2023-07-31T02:11:16;16.90;99.90
67777;DHT22;54576;52.020;5.536;2023-07-31T02:13:42;16.80;99.90
67777;DHT22;54576;52.020;5.536;2023-07-31T02:16:07;16.80;99.90
67777;DHT22;54576;52.020;5.536;2023-07-31T02:18:33;16.80;99.90
67777;DHT22;54576;52.020;5.536;2023-07-31T02:20:58;16.80;99.90
67777;DHT22;54576;52.020;5.536;2023-07-31T02:23:24;16.80;99.90
67777;DHT22;54576;52.020;5.536;2023-07-31T02:25:49;16.80;99.90
67777;DHT22;54576;52.020;5.536;2023-07-31T02:28:15;16.80;99.90
67777;DHT22;54576;52.020;5.536;2023-07-31T02:30:44;16.80;99.90
67777;DHT22;54576;52.020;5.536;2023-07-31T02:33:11;16.80;99.90
67777;DHT22;54576;52.020;5.536;2023-07-31T02:35:36;16.80;99.90
67777;DHT22;54576;52.020;5.536;2023-07-31T02:38:02;16.80;99.90
67777;DHT22;54576;52.020;5.536;2023-07-31T02:40:27;16.80;99.90
67777;DHT22;54576;52.020;5.536;2023-07-31T02:42:53;16.80;99.90
67777;DHT22;54576;52.020;5.536;2023-07-31T02:45:18;16.80;99.90
67777;DHT22;54576;52.020;5.536;2023-07-31T02:47:44;16.90;99.90
67777;DHT22;54576;52.020;5.536;2023-07-31T02:50:10;16.90;99.90
67777;DHT22;54576;52.020;5.536;2023-07-31T02:52:35;16.90;99.90
67777;DHT22;54576;52.020;5.536;2023-07-31T02:55:01;16.90;99.90
67777;DHT22;54576;52.020;5.536;2023-07-31T02:57:27;16.90;99.90
67777;DHT22;54576;52.020;5.536;2023-07-31T02:59:52;16.90;99.90
67777;DHT22;54576;52.020;5.536;2023-07-31T03:02:18;16.90;99.90
67777;DHT22;54576;52.020;5.536;2023-07-31T03:04:43;16.90;99.90
67777;DHT22;54576;52.020;5.536;2023-07-31T03:07:09;16.80;99.90
67777;DHT22;54576;52.020;5.536;2023-07-31T03:09:35;16.80;99.90
67777;DHT22;54576;52.020;5.536;2023-07-31T03:12:00;16.90;99.90
67777;DHT22;54576;52.020;5.536;2023-07-31T03:14:26;16.80;99.90
67777;DHT22;54576;52.020;5.536;2023-07-31T03:16:52;16.80;99.90
67777;DHT22;54576;52.020;5.536;2023-07-31T03:19:17;16.80;99.90
67777;DHT22;54576;52.020;5.536;2023-07-31T03:21:43;16.80;99.90
67777;DHT22;54576;52.020;5.536;2023-07-31T03:24:09;16.80;99.90
67777;DHT22;54576;52.020;5.536;2023-07-31T03:26:34;16.80;99.90
67777;DHT22;54576;52.020;5.536;2023-07-31T03:29:01;16.70;99.90
67777;DHT22;54576;52.020;5.536;2023-07-31T03:31:27;16.70;99.90
67777;DHT22;54576;52.020;5.536;2023-07-31T03:33:52;16.70;99.90
67777;DHT22;54576;52.020;5.536;2023-07-31T03:36:18;16.70;99.90
67777;DHT22;54576;52.020;5.536;2023-07-31T03:38:43;16.70;99.90
67777;DHT22;54576;52.020;5.536;2023-07-31T03:41:09;16.70;99.90
67777;DHT22;54576;52.020;5.536;2023-07-31T03:43:36;16.70;99.90
67777;DHT22;54576;52.020;5.536;2023-07-31T03:46:02;16.70;99.90
67777;DHT22;54576;52.020;5.536;2023-07-31T03:48:28;16.70;99.90
67777;DHT22;54576;52.020;5.536;2023-07-31T03:50:54;16.70;99.90
67777;DHT22;54576;52.020;5.536;2023-07-31T03:53:20;16.70;99.90
67777;DHT22;54576;52.020;5.536;2023-07-31T03:55:46;16.70;99.90
67777;DHT22;54576;52.020;5.536;2023-07-31T03:58:12;16.70;99.90
67777;DHT22;54576;52.020;5.536;2023-07-31T04:00:37;16.70;99.90
67777;DHT22;54576;52.020;5.536;2023-07-31T04:03:06;16.70;99.90
67777;DHT22;54576;52.020;5.536;2023-07-31T04:05:32;16.70;99.90
67777;DHT22;54576;52.020;5.536;2023-07-31T04:07:58;16.70;99.90
67777;DHT22;54576;52.020;5.536;2023-07-31T04:10:24;16.70;99.90
67777;DHT22;54576;52.020;5.536;2023-07-31T04:12:49;16.60;99.90
67777;DHT22;54576;52.020;5.536;2023-07-31T04:15:15;16.60;99.90
67777;DHT22;54576;52.020;5.536;2023-07-31T04:17:40;16.70;99.90
67777;DHT22;54576;52.020;5.536;2023-07-31T04:20:06;16.70;99.90
67777;DHT22;54576;52.020;5.536;2023-07-31T04:22:32;16.70;99.90
67777;DHT22;54576;52.020;5.536;2023-07-31T04:24:58;16.70;99.90
67777;DHT22;54576;52.020;5.536;2023-07-31T04:27:24;16.70;99.90
67777;DHT22;54576;52.020;5.536;2023-07-31T04:29:50;16.70;99.90
67777;DHT22;54576;52.020;5.536;2023-07-31T04:32:16;16.70;99.90
67777;DHT22;54576;52.020;5.536;2023-07-31T04:34:42;16.70;99.90
67777;DHT22;54576;52.020;5.536;2023-07-31T04:37:08;16.70;99.90
67777;DHT22;54576;52.020;5.536;2023-07-31T04:39:34;16.70;99.90
67777;DHT22;54576;52.020;5.536;2023-07-31T04:41:59;16.70;99.90
67777;DHT22;54576;52.020;5.536;2023-07-31T04:44:25;16.70;99.90
67777;DHT22;54576;52.020;5.536;2023-07-31T04:46:51;16.70;99.90
67777;DHT22;54576;52.020;5.536;2023-07-31T04:49:16;16.70;99.90
67777;DHT22;54576;52.020;5.536;2023-07-31T04:51:42;16.70;99.90
67777;DHT22;54576;52.020;5.536;2023-07-31T04:54:07;16.70;99.90
67777;DHT22;54576;52.020;5.536;2023-07-31T04:56:33;16.70;99.90
67777;DHT22;54576;52.020;5.536;2023-07-31T04:58:59;16.70;99.90
67777;DHT22;54576;52.020;5.536;2023-07-31T05:01:25;16.70;99.90
67777;DHT22;54576;52.020;5.536;2023-07-31T05:03:50;16.70;99.90
67777;DHT22;54576;52.020;5.536;2023-07-31T05:06:16;16.70;99.90
67777;DHT22;54576;52.020;5.536;2023-07-31T05:08:42;16.70;99.90
67777;DHT22;54576;52.020;5.536;2023-07-31T05:11:07;16.70;99.90
67777;DHT22;54576;52.020;5.536;2023-07-31T05:13:33;16.70;99.90
67777;DHT22;54576;52.020;5.536;2023-07-31T05:15:58;16.70;99.90
67777;DHT22;54576;52.020;5.536;2023-07-31T05:18:24;16.70;99.90
67777;DHT22;54576;52.020;5.536;2023-07-31T05:20:49;16.70;99.90
67777;DHT22;54576;52.020;5.536;2023-07-31T05:23:15;16.60;99.90
67777;DHT22;54576;52.020;5.536;2023-07-31T05:25:40;16.60;99.90
67777;DHT22;54576;52.020;5.536;2023-07-31T05:28:06;16.60;99.90
67777;DHT22;54576;52.020;5.536;2023-07-31T05:30:31;16.50;99.90
67777;DHT22;54576;52.020;5.536;2023-07-31T05:32:57;16.50;99.90
67777;DHT22;54576;52.020;5.536;2023-07-31T05:35:23;16.50;99.90
67777;DHT22;54576;52.020;5.536;2023-07-31T05:37:48;16.50;99.90
67777;DHT22;54576;52.020;5.536;2023-07-31T05:40:14;16.50;99.90
67777;DHT22;54576;52.020;5.536;2023-07-31T05:42:40;16.40;99.90
67777;DHT22;54576;52.020;5.536;2023-07-31T05:45:07;16.40;99.90
67777;DHT22;54576;52.020;5.536;2023-07-31T05:47:33;16.40;99.90
67777;DHT22;54576;52.020;5.536;2023-07-31T05:49:58;16.40;99.90
67777;DHT22;54576;52.020;5.536;2023-07-31T05:52:24;16.40;99.90
67777;DHT22;54576;52.020;5.536;2023-07-31T05:54:49;16.40;99.90
67777;DHT22;54576;52.020;5.536;2023-07-31T05:57:15;16.40;99.90
67777;DHT22;54576;52.020;5.536;2023-07-31T05:59:41;16.50;99.90
67777;DHT22;54576;52.020;5.536;2023-07-31T06:02:07;16.50;99.90
67777;DHT22;54576;52.020;5.536;2023-07-31T06:04:33;16.50;99.90
67777;DHT22;54576;52.020;5.536;2023-07-31T06:06:58;16.60;99.90
67777;DHT22;54576;52.020;5.536;2023-07-31T06:09:24;16.50;99.90
67777;DHT22;54576;52.020;5.536;2023-07-31T06:11:51;16.60;99.90
67777;DHT22;54576;52.020;5.536;2023-07-31T06:14:16;16.60;99.90
67777;DHT22;54576;52.020;5.536;2023-07-31T06:16:42;16.60;99.90
67777;DHT22;54576;52.020;5.536;2023-07-31T06:19:09;16.60;99.90
67777;DHT22;54576;52.020;5.536;2023-07-31T06:21:35;16.60;99.90
67777;DHT22;54576;52.020;5.536;2023-07-31T06:24:03;16.60;99.90
67777;DHT22;54576;52.020;5.536;2023-07-31T06:26:28;16.60;99.90
67777;DHT22;54576;52.020;5.536;2023-07-31T06:28:54;16.70;99.90
67777;DHT22;54576;52.020;5.536;2023-07-31T06:31:20;16.70;99.90
67777;DHT22;54576;52.020;5.536;2023-07-31T06:33:51;16.70;99.90
67777;DHT22;54576;52.020;5.536;2023-07-31T06:36:17;16.80;99.90
67777;DHT22;54576;52.020;5.536;2023-07-31T06:38:43;16.80;99.90
67777;DHT22;54576;52.020;5.536;2023-07-31T06:41:08;16.80;99.90
67777;DHT22;54576;52.020;5.536;2023-07-31T06:43:36;16.80;99.90
67777;DHT22;54576;52.020;5.536;2023-07-31T06:46:05;16.80;99.90
67777;DHT22;54576;52.020;5.536;2023-07-31T06:48:32;16.80;99.90
67777;DHT22;54576;52.020;5.536;2023-07-31T06:51:07;16.80;99.90
67777;DHT22;54576;52.020;5.536;2023-07-31T06:53:33;16.80;99.90
67777;DHT22;54576;52.020;5.536;2023-07-31T06:55:58;16.80;99.90
67777;DHT22;54576;52.020;5.536;2023-07-31T06:58:24;16.80;99.90
67777;DHT22;54576;52.020;5.536;2023-07-31T07:00:49;16.80;99.90
67777;DHT22;54576;52.020;5.536;2023-07-31T07:03:18;16.80;99.90
67777;DHT22;54576;52.020;5.536;2023-07-31T07:05:44;16.90;99.90
67777;DHT22;54576;52.020;5.536;2023-07-31T07:08:09;17.00;99.90
67777;DHT22;54576;52.020;5.536;2023-07-31T07:10:35;17.00;99.90
67777;DHT22;54576;52.020;5.536;2023-07-31T07:13:00;17.00;99.90
67777;DHT22;54576;52.020;5.536;2023-07-31T07:15:26;17.10;99.90
67777;DHT22;54576;52.020;5.536;2023-07-31T07:17:52;17.10;99.90
67777;DHT22;54576;52.020;5.536;2023-07-31T07:20:17;17.10;99.90
67777;DHT22;54576;52.020;5.536;2023-07-31T07:22:44;17.10;99.90
67777;DHT22;54576;52.020;5.536;2023-07-31T07:25:10;17.10;99.90
67777;DHT22;54576;52.020;5.536;2023-07-31T07:27:36;17.10;99.90
67777;DHT22;54576;52.020;5.536;2023-07-31T07:30:01;17.10;99.90
67777;DHT22;54576;52.020;5.536;2023-07-31T07:32:27;17.10;99.90
67777;DHT22;54576;52.020;5.536;2023-07-31T07:34:53;17.20;99.90
67777;DHT22;54576;52.020;5.536;2023-07-31T07:37:18;17.20;99.90
67777;DHT22;54576;52.020;5.536;2023-07-31T07:39:44;17.20;99.90
67777;DHT22;54576;52.020;5.536;2023-07-31T07:42:10;17.20;99.90
67777;DHT22;54576;52.020;5.536;2023-07-31T07:44:35;17.20;99.90
67777;DHT22;54576;52.020;5.536;2023-07-31T07:47:04;17.20;99.90
67777;DHT22;54576;52.020;5.536;2023-07-31T07:49:33;17.20;99.90
67777;DHT22;54576;52.020;5.536;2023-07-31T07:51:59;17.20;99.90
67777;DHT22;54576;52.020;5.536;2023-07-31T07:54:25;17.20;99.90
67777;DHT22;54576;52.020;5.536;2023-07-31T07:56:50;17.20;99.90
67777;DHT22;54576;52.020;5.536;2023-07-31T07:59:16;17.30;99.90
67777;DHT22;54576;52.020;5.536;2023-07-31T08:01:42;17.30;99.90
67777;DHT22;54576;52.020;5.536;2023-07-31T08:04:07;17.30;99.90
67777;DHT22;54576;52.020;5.536;2023-07-31T08:06:33;17.40;99.90
67777;DHT22;54576;52.020;5.536;2023-07-31T08:08:59;17.40;99.90
67777;DHT22;54576;52.020;5.536;2023-07-31T08:11:25;17.40;99.90
67777;DHT22;54576;52.020;5.536;2023-07-31T08:13:50;17.40;99.90
67777;DHT22;54576;52.020;5.536;2023-07-31T08:16:16;17.40;99.90
67777;DHT22;54576;52.020;5.536;2023-07-31T08:18:45;17.40;99.90
67777;DHT22;54576;52.020;5.536;2023-07-31T08:21:10;17.50;99.90
67777;DHT22;54576;52.020;5.536;2023-07-31T08:23:36;17.40;99.90
67777;DHT22;54576;52.020;5.536;2023-07-31T08:26:01;17.50;99.90
67777;DHT22;54576;52.020;5.536;2023-07-31T08:28:27;17.50;99.90
67777;DHT22;54576;52.020;5.536;2023-07-31T08:30:53;17.50;99.90
67777;DHT22;54576;52.020;5.536;2023-07-31T08:33:18;17.60;99.90
67777;DHT22;54576;52.020;5.536;2023-07-31T08:35:44;17.70;99.90
67777;DHT22;54576;52.020;5.536;2023-07-31T08:38:09;17.70;99.90
67777;DHT22;54576;52.020;5.536;2023-07-31T08:40:38;17.70;99.90
67777;DHT22;54576;52.020;5.536;2023-07-31T08:43:04;17.80;99.90
67777;DHT22;54576;52.020;5.536;2023-07-31T08:45:32;17.80;99.90
67777;DHT22;54576;52.020;5.536;2023-07-31T08:47:59;17.80;99.90
67777;DHT22;54576;52.020;5.536;2023-07-31T08:50:25;17.80;99.90
67777;DHT22;54576;52.020;5.536;2023-07-31T08:52:51;17.80;99.90
67777;DHT22;54576;52.020;5.536;2023-07-31T08:55:17;17.80;99.90
67777;DHT22;54576;52.020;5.536;2023-07-31T08:57:49;17.80;99.90
67777;DHT22;54576;52.020;5.536;2023-07-31T09:00:15;17.80;99.90
67777;DHT22;54576;52.020;5.536;2023-07-31T09:03:19;17.90;99.90
67777;DHT22;54576;52.020;5.536;2023-07-31T09:05:39;17.90;99.90
67777;DHT22;54576;52.020;5.536;2023-07-31T09:08:07;17.80;99.90
67777;DHT22;54576;52.020;5.536;2023-07-31T09:10:34;17.90;99.90
67777;DHT22;54576;52.020;5.536;2023-07-31T09:13:00;17.90;99.90
67777;DHT22;54576;52.020;5.536;2023-07-31T09:15:27;17.90;99.90
67777;DHT22;54576;52.020;5.536;2023-07-31T09:18:01;17.90;99.90
67777;DHT22;54576;52.020;5.536;2023-07-31T09:20:27;17.90;99.90
67777;DHT22;54576;52.020;5.536;2023-07-31T09:22:54;17.90;99.90
67777;DHT22;54576;52.020;5.536;2023-07-31T09:25:21;17.90;99.90
67777;DHT22;54576;52.020;5.536;2023-07-31T09:27:58;18.00;99.90
67777;DHT22;54576;52.020;5.536;2023-07-31T09:30:24;18.00;99.90
67777;DHT22;54576;52.020;5.536;2023-07-31T09:32:51;18.00;99.90
67777;DHT22;54576;52.020;5.536;2023-07-31T09:35:28;18.00;99.90
67777;DHT22;54576;52.020;5.536;2023-07-31T09:37:57;18.00;99.90
67777;DHT22;54576;52.020;5.536;2023-07-31T09:40:42;18.00;99.90
67777;DHT22;54576;52.020;5.536;2023-07-31T09:43:10;18.00;99.90
67777;DHT22;54576;52.020;5.536;2023-07-31T09:45:37;17.90;99.90
67777;DHT22;54576;52.020;5.536;2023-07-31T09:48:10;18.00;99.90
67777;DHT22;54576;52.020;5.536;2023-07-31T09:50:40;18.00;99.90
67777;DHT22;54576;52.020;5.536;2023-07-31T09:53:07;18.00;99.90
67777;DHT22;54576;52.020;5.536;2023-07-31T09:55:33;18.10;99.90
67777;DHT22;54576;52.020;5.536;2023-07-31T09:58:01;18.00;99.90
67777;DHT22;54576;52.020;5.536;2023-07-31T10:00:28;18.00;99.90
67777;DHT22;54576;52.020;5.536;2023-07-31T10:02:58;18.00;99.90
67777;DHT22;54576;52.020;5.536;2023-07-31T10:05:30;18.00;99.90
67777;DHT22;54576;52.020;5.536;2023-07-31T10:07:57;18.10;99.90
67777;DHT22;54576;52.020;5.536;2023-07-31T10:10:23;18.10;99.90
67777;DHT22;54576;52.020;5.536;2023-07-31T10:12:52;18.30;99.90
67777;DHT22;54576;52.020;5.536;2023-07-31T10:15:19;18.30;99.90
67777;DHT22;54576;52.020;5.536;2023-07-31T10:17:48;18.40;99.90
67777;DHT22;54576;52.020;5.536;2023-07-31T10:20:15;18.60;99.90
67777;DHT22;54576;52.020;5.536;2023-07-31T10:22:44;18.70;99.90
67777;DHT22;54576;52.020;5.536;2023-07-31T10:25:17;18.80;99.90
67777;DHT22;54576;52.020;5.536;2023-07-31T10:27:43;18.90;99.90
67777;DHT22;54576;52.020;5.536;2023-07-31T10:30:12;18.80;99.90
67777;DHT22;54576;52.020;5.536;2023-07-31T10:32:41;18.80;99.90
67777;DHT22;54576;52.020;5.536;2023-07-31T10:35:08;18.80;99.90
67777;DHT22;54576;52.020;5.536;2023-07-31T10:37:39;18.80;99.90
67777;DHT22;54576;52.020;5.536;2023-07-31T10:42:51;18.90;99.90
67777;DHT22;54576;52.020;5.536;2023-07-31T10:45:44;19.00;99.90
67777;DHT22;54576;52.020;5.536;2023-07-31T10:48:16;19.10;99.90
67777;DHT22;54576;52.020;5.536;2023-07-31T10:50:49;19.20;99.90
67777;DHT22;54576;52.020;5.536;2023-07-31T10:53:34;19.20;99.90
67777;DHT22;54576;52.020;5.536;2023-07-31T10:56:00;19.30;99.90
67777;DHT22;54576;52.020;5.536;2023-07-31T10:58:26;19.30;99.90
67777;DHT22;54576;52.020;5.536;2023-07-31T11:00:56;19.20;99.90
67777;DHT22;54576;52.020;5.536;2023-07-31T11:03:25;19.20;99.90
67777;DHT22;54576;52.020;5.536;2023-07-31T11:06:03;19.20;99.90
67777;DHT22;54576;52.020;5.536;2023-07-31T11:08:33;19.20;99.90
67777;DHT22;54576;52.020;5.536;2023-07-31T11:13:31;19.40;99.90
67777;DHT22;54576;52.020;5.536;2023-07-31T11:15:58;19.30;99.90
67777;DHT22;54576;52.020;5.536;2023-07-31T11:18:24;19.30;99.90
67777;DHT22;54576;52.020;5.536;2023-07-31T11:20:49;19.30;99.90
67777;DHT22;54576;52.020;5.536;2023-07-31T11:23:16;19.20;99.90
67777;DHT22;54576;52.020;5.536;2023-07-31T11:25:42;19.20;99.90
67777;DHT22;54576;52.020;5.536;2023-07-31T11:28:19;19.20;99.90
67777;DHT22;54576;52.020;5.536;2023-07-31T11:30:48;19.30;99.90
67777;DHT22;54576;52.020;5.536;2023-07-31T11:45:48;19.40;99.90
67777;DHT22;54576;52.020;5.536;2023-07-31T11:48:25;19.40;99.90
67777;DHT22;54576;52.020;5.536;2023-07-31T11:50:53;19.50;99.90
67777;DHT22;54576;52.020;5.536;2023-07-31T11:55:54;19.50;99.90
67777;DHT22;54576;52.020;5.536;2023-07-31T11:58:21;19.60;99.90
67777;DHT22;54576;52.020;5.536;2023-07-31T12:00:47;19.60;99.90
67777;DHT22;54576;52.020;5.536;2023-07-31T12:03:13;19.50;99.90
67777;DHT22;54576;52.020;5.536;2023-07-31T12:05:39;19.50;99.90
67777;DHT22;54576;52.020;5.536;2023-07-31T12:08:11;19.50;99.90
67777;DHT22;54576;52.020;5.536;2023-07-31T12:10:37;19.50;99.90
67777;DHT22;54576;52.020;5.536;2023-07-31T12:13:07;19.60;99.90
67777;DHT22;54576;52.020;5.536;2023-07-31T12:18:00;19.60;99.90
67777;DHT22;54576;52.020;5.536;2023-07-31T12:20:25;19.50;99.90
67777;DHT22;54576;52.020;5.536;2023-07-31T12:22:51;19.50;99.90
67777;DHT22;54576;52.020;5.536;2023-07-31T12:25:17;19.50;99.90
67777;DHT22;54576;52.020;5.536;2023-07-31T12:27:45;19.50;99.90
67777;DHT22;54576;52.020;5.536;2023-07-31T12:30:31;19.50;99.90
67777;DHT22;54576;52.020;5.536;2023-07-31T12:33:15;19.40;99.90
67777;DHT22;54576;52.020;5.536;2023-07-31T12:35:45;19.30;99.90
67777;DHT22;54576;52.020;5.536;2023-07-31T12:38:12;19.30;99.90
67777;DHT22;54576;52.020;5.536;2023-07-31T12:40:39;19.20;99.90
67777;DHT22;54576;52.020;5.536;2023-07-31T12:43:05;19.30;99.90
67777;DHT22;54576;52.020;5.536;2023-07-31T12:45:31;19.40;99.90
67777;DHT22;54576;52.020;5.536;2023-07-31T12:47:58;19.50;99.90
67777;DHT22;54576;52.020;5.536;2023-07-31T12:50:24;19.70;99.90
67777;DHT22;54576;52.020;5.536;2023-07-31T12:52:53;19.70;99.90
67777;DHT22;54576;52.020;5.536;2023-07-31T12:55:19;19.70;99.90
67777;DHT22;54576;52.020;5.536;2023-07-31T12:57:45;19.80;99.90
67777;DHT22;54576;52.020;5.536;2023-07-31T13:00:11;19.90;99.90
67777;DHT22;54576;52.020;5.536;2023-07-31T13:02:38;19.90;99.90
67777;DHT22;54576;52.020;5.536;2023-07-31T13:05:04;20.00;99.90
67777;DHT22;54576;52.020;5.536;2023-07-31T13:07:29;20.00;99.90
67777;DHT22;54576;52.020;5.536;2023-07-31T13:09:55;20.00;99.90
67777;DHT22;54576;52.020;5.536;2023-07-31T13:12:21;20.10;99.90
67777;DHT22;54576;52.020;5.536;2023-07-31T13:14:46;20.10;99.90
67777;DHT22;54576;52.020;5.536;2023-07-31T13:17:12;20.10;99.90
67777;DHT22;54576;52.020;5.536;2023-07-31T13:19:37;20.10;99.90
67777;DHT22;54576;52.020;5.536;2023-07-31T13:22:03;20.10;99.90
67777;DHT22;54576;52.020;5.536;2023-07-31T13:24:29;20.00;99.90
67777;DHT22;54576;52.020;5.536;2023-07-31T13:26:56;19.90;99.90
67777;DHT22;54576;52.020;5.536;2023-07-31T13:29:22;19.80;99.90
67777;DHT22;54576;52.020;5.536;2023-07-31T13:31:48;19.70;99.90
67777;DHT22;54576;52.020;5.536;2023-07-31T13:34:13;19.70;99.90
67777;DHT22;54576;52.020;5.536;2023-07-31T13:36:39;19.60;99.90
67777;DHT22;54576;52.020;5.536;2023-07-31T13:39:04;19.70;99.90
67777;DHT22;54576;52.020;5.536;2023-07-31T13:41:30;19.70;99.90
67777;DHT22;54576;52.020;5.536;2023-07-31T13:43:56;19.70;99.90
67777;DHT22;54576;52.020;5.536;2023-07-31T13:46:21;19.80;99.90
67777;DHT22;54576;52.020;5.536;2023-07-31T13:51:15;19.70;99.90
67777;DHT22;54576;52.020;5.536;2023-07-31T13:53:41;19.70;99.90
67777;DHT22;54576;52.020;5.536;2023-07-31T13:56:07;19.70;99.90
67777;DHT22;54576;52.020;5.536;2023-07-31T13:58:33;19.70;99.90
67777;DHT22;54576;52.020;5.536;2023-07-31T14:00:59;19.70;99.90
67777;DHT22;54576;52.020;5.536;2023-07-31T14:03:25;19.60;99.90
67777;DHT22;54576;52.020;5.536;2023-07-31T14:05:52;19.60;99.90
67777;DHT22;54576;52.020;5.536;2023-07-31T14:08:17;19.50;99.90
67777;DHT22;54576;52.020;5.536;2023-07-31T14:10:43;19.50;99.90
67777;DHT22;54576;52.020;5.536;2023-07-31T14:13:08;19.50;99.90
67777;DHT22;54576;52.020;5.536;2023-07-31T14:15:34;19.50;99.90
67777;DHT22;54576;52.020;5.536;2023-07-31T14:18:01;19.50;99.90
67777;DHT22;54576;52.020;5.536;2023-07-31T14:20:28;19.50;99.90
67777;DHT22;54576;52.020;5.536;2023-07-31T14:22:53;19.40;99.90
67777;DHT22;54576;52.020;5.536;2023-07-31T14:25:19;19.40;99.90
67777;DHT22;54576;52.020;5.536;2023-07-31T14:27:44;19.30;99.90
67777;DHT22;54576;52.020;5.536;2023-07-31T14:30:10;19.30;99.90
67777;DHT22;54576;52.020;5.536;2023-07-31T14:32:36;19.30;99.90
67777;DHT22;54576;52.020;5.536;2023-07-31T14:35:03;19.30;99.90
67777;DHT22;54576;52.020;5.536;2023-07-31T14:40:03;19.30;99.90
67777;DHT22;54576;52.020;5.536;2023-07-31T14:44:54;19.40;99.90
67777;DHT22;54576;52.020;5.536;2023-07-31T14:49:49;19.30;99.90
67777;DHT22;54576;52.020;5.536;2023-07-31T14:57:07;19.20;99.90
67777;DHT22;54576;52.020;5.536;2023-07-31T14:59:32;19.20;99.90
67777;DHT22;54576;52.020;5.536;2023-07-31T15:01:58;19.10;99.90
67777;DHT22;54576;52.020;5.536;2023-07-31T15:04:23;19.10;99.90
67777;DHT22;54576;52.020;5.536;2023-07-31T15:06:50;19.10;99.90
67777;DHT22;54576;52.020;5.536;2023-07-31T15:11:41;19.10;99.90
67777;DHT22;54576;52.020;5.536;2023-07-31T15:14:07;19.10;99.90
67777;DHT22;54576;52.020;5.536;2023-07-31T15:16:33;19.10;99.90
67777;DHT22;54576;52.020;5.536;2023-07-31T15:18:58;19.20;99.90
67777;DHT22;54576;52.020;5.536;2023-07-31T15:21:24;19.20;99.90
67777;DHT22;54576;52.020;5.536;2023-07-31T15:23:50;19.20;99.90
67777;DHT22;54576;52.020;5.536;2023-07-31T15:26:15;19.10;99.90
67777;DHT22;54576;52.020;5.536;2023-07-31T15:28:41;19.10;99.90
67777;DHT22;54576;52.020;5.536;2023-07-31T15:31:06;19.10;99.90
67777;DHT22;54576;52.020;5.536;2023-07-31T15:53:00;19.30;99.90
67777;DHT22;54576;52.020;5.536;2023-07-31T15:57:52;19.00;99.90
67777;DHT22;54576;52.020;5.536;2023-07-31T16:00:18;19.00;99.90
67777;DHT22;54576;52.020;5.536;2023-07-31T16:02:44;19.00;99.90
67777;DHT22;54576;52.020;5.536;2023-07-31T16:12:28;19.00;99.90
67777;DHT22;54576;52.020;5.536;2023-07-31T16:22:11;19.10;99.90
67777;DHT22;54576;52.020;5.536;2023-07-31T16:24:37;18.90;99.90
67777;DHT22;54576;52.020;5.536;2023-07-31T16:27:03;18.80;99.90
67777;DHT22;54576;52.020;5.536;2023-07-31T16:29:28;18.80;99.90
67777;DHT22;54576;52.020;5.536;2023-07-31T16:31:54;18.70;99.90
67777;DHT22;54576;52.020;5.536;2023-07-31T16:34:19;18.70;99.90
67777;DHT22;54576;52.020;5.536;2023-07-31T16:39:11;18.70;99.90
67777;DHT22;54576;52.020;5.536;2023-07-31T16:41:37;18.60;99.90
67777;DHT22;54576;52.020;5.536;2023-07-31T16:44:02;18.60;99.90
67777;DHT22;54576;52.020;5.536;2023-07-31T16:46:28;18.60;99.90
67777;DHT22;54576;52.020;5.536;2023-07-31T16:48:55;18.60;99.90
67777;DHT22;54576;52.020;5.536;2023-07-31T16:51:21;18.60;99.90